Time;durP1;ratioP1;P1;durP2;ratioP2;P2;SDS_P1;SDS_P2;PMS_P1;PMS_P2;Temp;Humidity;BMP_temperature;BMP_pressure;BME280_temperature;BME280_humidity;BME280_pressure;Samples;Min_cycle;Max_cycle;Signal;HPM_P1;HPM_P2
2021/06/30 00:02:57;;;;;;;9.37;8.07;;;;;14.80;100693.00;;;;10522187;28;20552;-76
2021/06/30 00:08:04;;;;;;;9.00;6.93;;;;;14.80;100696.00;;;;10521309;28;20192;-77
2021/06/30 00:13:06;;;;;;;4.03;3.27;;;;;14.60;100702.00;;;;10504958;28;20662;-77
2021/06/30 00:18:09;;;;;;;4.27;3.87;;;;;14.60;100701.00;;;;10488316;28;20644;-77
2021/06/30 00:23:16;;;;;;;6.27;5.60;;;;;14.50;100700.00;;;;10522043;28;20258;-77
2021/06/30 00:28:23;;;;;;;7.63;6.83;;;;;14.40;100703.00;;;;10506193;28;20213;-78
2021/06/30 00:33:30;;;;;;;7.57;6.73;;;;;14.30;100709.00;;;;10509684;28;20209;-77
2021/06/30 00:38:37;;;;;;;8.70;7.80;;;;;14.30;100705.00;;;;10512862;28;20652;-77
2021/06/30 00:43:44;;;;;;;10.03;8.00;;;;;14.20;100697.00;;;;10512334;28;20201;-76
2021/06/30 00:48:46;;;;;;;11.13;7.83;;;;;14.20;100699.00;;;;10528866;28;20203;-77
2021/06/30 00:53:54;;;;;;;9.50;7.70;;;;;14.10;100700.00;;;;10511936;28;20189;-76
2021/06/30 00:58:58;;;;;;;11.07;8.27;;;;;14.10;100694.00;;;;10510476;28;20197;-76
2021/06/30 01:04:05;;;;;;;7.17;6.37;;;;;14.00;100703.00;;;;10516987;28;20209;-77
2021/06/30 01:09:07;;;;;;;8.40;6.40;;;;;13.90;100702.00;;;;10531587;28;20197;-77
2021/06/30 01:14:35;;;;;;;7.43;6.57;;;;;13.90;100704.00;;;;10530122;28;20234;-77
2021/06/30 01:19:42;;;;;;;7.43;6.33;;;;;13.90;100704.00;;;;10531148;28;20819;-77
2021/06/30 01:24:50;;;;;;;7.73;6.40;;;;;13.80;100701.00;;;;10531423;28;20200;-77
2021/06/30 01:29:52;;;;;;;7.90;6.90;;;;;13.80;100701.00;;;;10545935;28;20257;-77
2021/06/30 01:34:59;;;;;;;11.43;7.17;;;;;13.70;100711.00;;;;10526986;28;20204;-77
2021/06/30 01:40:07;;;;;;;8.83;7.60;;;;;13.60;100703.00;;;;10526195;28;20211;-77
2021/06/30 01:45:14;;;;;;;9.43;8.43;;;;;13.60;100707.00;;;;10491577;28;20655;-77
2021/06/30 01:50:16;;;;;;;11.40;8.90;;;;;13.60;100706.00;;;;10525147;28;20188;-76
2021/06/30 01:55:18;;;;;;;14.67;10.10;;;;;13.50;100700.00;;;;10508209;28;20199;-76
2021/06/30 02:00:21;;;;;;;11.93;9.57;;;;;13.50;100710.00;;;;10508960;28;20229;-76
2021/06/30 02:05:29;;;;;;;11.33;9.53;;;;;13.50;100703.00;;;;10509544;28;20607;-76
2021/06/30 02:10:36;;;;;;;14.80;10.33;;;;;13.50;100711.00;;;;10526750;28;20196;-76
2021/06/30 02:15:43;;;;;;;14.23;11.60;;;;;13.70;100708.00;;;;10491164;28;20192;-76
2021/06/30 02:20:50;;;;;;;16.57;11.17;;;;;13.70;100703.00;;;;10509085;28;20189;-76
2021/06/30 02:25:57;;;;;;;13.57;10.33;;;;;13.70;100698.00;;;;10482995;28;20216;-76
2021/06/30 02:31:00;;;;;;;15.70;11.10;;;;;13.70;100700.00;;;;10449587;28;20189;-76
2021/06/30 02:36:07;;;;;;;15.93;12.20;;;;;13.70;100695.00;;;;10492297;28;20208;-77
2021/06/30 02:41:10;;;;;;;18.40;13.00;;;;;13.80;100694.00;;;;10523858;28;20205;-76
2021/06/30 02:46:16;;;;;;;17.77;13.60;;;;;13.70;100693.00;;;;10490673;28;20201;-76
2021/06/30 02:51:23;;;;;;;23.07;15.77;;;;;13.70;100703.00;;;;10524350;28;20184;-76
2021/06/30 02:56:30;;;;;;;27.17;17.00;;;;;13.70;100705.00;;;;10453206;28;20190;-77
2021/06/30 03:01:32;;;;;;;34.70;16.47;;;;;13.80;100696.00;;;;10448697;28;20232;-76
2021/06/30 03:06:39;;;;;;;21.80;12.83;;;;;13.80;100697.00;;;;10480546;28;20197;-77
2021/06/30 03:11:41;;;;;;;16.20;12.47;;;;;13.70;100709.00;;;;10447949;28;20201;-76
2021/06/30 03:16:43;;;;;;;21.80;12.97;;;;;13.70;100706.00;;;;10480369;28;20530;-77
2021/06/30 03:21:45;;;;;;;23.40;13.37;;;;;13.70;100696.00;;;;10480389;28;20204;-77
2021/06/30 03:26:47;;;;;;;20.17;13.30;;;;;13.70;100713.00;;;;10464559;28;20201;-76
2021/06/30 03:31:54;;;;;;;11.27;7.33;;;;;13.70;100700.00;;;;10464230;28;20809;-77
2021/06/30 03:37:02;;;;;;;6.93;5.30;;;;;13.30;100707.00;;;;10479616;28;20648;-77
2021/06/30 03:42:09;;;;;;;8.30;5.93;;;;;12.90;100718.00;;;;10446768;28;20189;-76
2021/06/30 03:47:11;;;;;;;7.50;6.40;;;;;12.80;100725.00;;;;10479627;28;20205;-76
2021/06/30 03:52:18;;;;;;;11.03;8.10;;;;;12.80;100718.00;;;;10480121;28;20641;-76
2021/06/30 03:57:25;;;;;;;13.40;8.63;;;;;12.90;100724.00;;;;10464201;28;20193;-76
2021/06/30 04:02:27;;;;;;;11.93;8.20;;;;;12.90;100722.00;;;;10480652;28;20189;-77
2021/06/30 04:07:29;;;;;;;16.80;9.13;;;;;12.90;100723.00;;;;10467273;28;20255;-77
2021/06/30 04:12:31;;;;;;;15.93;9.53;;;;;12.90;100721.00;;;;10488768;28;20232;-76
2021/06/30 04:17:38;;;;;;;16.30;10.43;;;;;12.90;100713.00;;;;10472058;28;20182;-76
2021/06/30 04:22:45;;;;;;;14.43;9.47;;;;;12.90;100713.00;;;;10463047;28;20201;-77
2021/06/30 04:27:47;;;;;;;15.47;10.10;;;;;12.90;100713.00;;;;10512605;28;20197;-77
2021/06/30 04:32:49;;;;;;;13.63;9.13;;;;;13.00;100704.00;;;;10503168;28;20209;-77
2021/06/30 04:37:56;;;;;;;13.83;8.77;;;;;13.00;100711.00;;;;10470093;28;20193;-77
2021/06/30 04:43:03;;;;;;;11.57;9.40;;;;;13.00;100716.00;;;;10471154;28;20198;-77
2021/06/30 04:48:10;;;;;;;13.40;8.33;;;;;13.00;100719.00;;;;10470865;28;20211;-77
2021/06/30 04:53:17;;;;;;;13.93;9.37;;;;;13.10;100721.00;;;;10487173;28;20185;-76
2021/06/30 04:58:19;;;;;;;13.63;9.77;;;;;13.10;100723.00;;;;10486411;28;20197;-76
2021/06/30 05:03:21;;;;;;;13.73;10.57;;;;;13.10;100724.00;;;;10513080;28;20216;-76
2021/06/30 05:08:28;;;;;;;15.60;10.87;;;;;13.10;100717.00;;;;10528713;28;20186;-76
2021/06/30 05:13:35;;;;;;;15.40;10.97;;;;;13.20;100720.00;;;;10511411;28;20181;-76
2021/06/30 05:18:37;;;;;;;15.40;10.30;;;;;13.20;100724.00;;;;10509873;28;20189;-77
2021/06/30 05:23:44;;;;;;;18.47;11.23;;;;;13.30;100707.00;;;;10489688;28;20213;-76
2021/06/30 05:28:46;;;;;;;18.03;13.03;;;;;13.40;100720.00;;;;10544993;28;20185;-76
2021/06/30 05:33:53;;;;;;;19.73;13.00;;;;;13.50;100725.00;;;;10511668;28;20209;-76
2021/06/30 05:39:00;;;;;;;14.03;9.20;;;;;13.70;100716.00;;;;10509901;28;20197;-76
2021/06/30 05:44:09;;;;;;;13.73;9.10;;;;;13.80;100716.00;;;;10509707;28;20204;-77
2021/06/30 05:49:17;;;;;;;12.30;8.63;;;;;14.10;100722.00;;;;10527066;28;20235;-76
2021/06/30 05:54:19;;;;;;;10.50;8.90;;;;;14.00;100721.00;;;;10509748;28;20207;-76
2021/06/30 05:59:20;;;;;;;12.43;9.90;;;;;13.80;100733.00;;;;10509756;28;20219;-77
2021/06/30 06:04:22;;;;;;;14.50;10.17;;;;;13.80;100740.00;;;;10525077;28;20204;-77
2021/06/30 06:09:29;;;;;;;14.53;8.37;;;;;13.70;100733.00;;;;10493281;28;20260;-77
2021/06/30 06:14:31;;;;;;;9.27;6.33;;;;;13.70;100737.00;;;;10525241;28;20197;-76
2021/06/30 06:19:38;;;;;;;5.53;5.03;;;;;13.70;100733.00;;;;10508205;28;20181;-76
2021/06/30 06:24:45;;;;;;;9.57;5.53;;;;;13.40;100734.00;;;;10500824;28;20259;-77
2021/06/30 06:29:49;;;;;;;9.07;5.70;;;;;13.30;100734.00;;;;10481238;28;20205;-76
2021/06/30 06:34:52;;;;;;;7.33;5.47;;;;;13.20;100731.00;;;;10481338;28;20731;-77
2021/06/30 06:39:53;;;;;;;7.53;5.87;;;;;13.10;100741.00;;;;10464545;28;20209;-77
2021/06/30 06:45:03;;;;;;;12.37;6.77;;;;;13.00;100736.00;;;;10464974;28;20204;-77
2021/06/30 06:50:10;;;;;;;12.13;6.20;;;;;13.00;100732.00;;;;10463944;28;20193;-77
2021/06/30 06:55:17;;;;;;;11.43;6.73;;;;;13.00;100741.00;;;;10465913;28;20291;-77
2021/06/30 07:00:24;;;;;;;12.30;7.17;;;;;13.20;100737.00;;;;10465560;28;20190;-76
2021/06/30 07:05:31;;;;;;;10.20;5.83;;;;;13.20;100740.00;;;;10481198;28;20664;-76
2021/06/30 07:10:38;;;;;;;11.00;5.50;;;;;13.00;100744.00;;;;10480636;28;20189;-77
2021/06/30 07:15:45;;;;;;;7.43;5.77;;;;;13.00;100758.00;;;;10463895;28;20194;-77
2021/06/30 07:20:52;;;;;;;8.50;5.63;;;;;13.10;100758.00;;;;10480322;28;20196;-76
2021/06/30 07:25:59;;;;;;;10.60;7.10;;;;;13.30;100765.00;;;;10532188;28;20263;-77
2021/06/30 07:31:02;;;;;;;12.33;7.87;;;;;13.40;100762.00;;;;10521074;28;20193;-76
2021/06/30 07:36:10;;;;;;;12.90;7.17;;;;;13.80;100764.00;;;;10504440;28;20201;-76
2021/06/30 07:41:17;;;;;;;12.17;8.10;;;;;14.20;100767.00;;;;10524462;28;20250;-76
2021/06/30 07:46:19;;;;;;;12.33;7.83;;;;;14.80;100770.00;;;;10487683;28;20205;-76
2021/06/30 07:51:21;;;;;;;14.17;8.23;;;;;14.70;100769.00;;;;10462621;28;20201;-76
2021/06/30 07:56:38;;;;;;;12.90;7.63;;;;;14.50;100772.00;;;;10497100;28;20708;-76
2021/06/30 08:01:41;;;;;;;14.93;7.83;;;;;14.40;100783.00;;;;10523760;28;20193;-77
2021/06/30 08:06:43;;;;;;;10.23;7.33;;;;;14.30;100778.00;;;;10469445;28;20213;-76
2021/06/30 08:11:45;;;;;;;11.77;6.80;;;;;14.10;100783.00;;;;10495576;28;20246;-77
2021/06/30 08:16:47;;;;;;;9.77;7.20;;;;;13.90;100792.00;;;;10495653;28;20236;-77
2021/06/30 08:21:50;;;;;;;15.47;7.20;;;;;13.90;100792.00;;;;10495579;28;20594;-77
2021/06/30 08:26:53;;;;;;;13.47;7.83;;;;;13.90;100799.00;;;;10512010;28;20266;-76
2021/06/30 08:31:57;;;;;;;10.60;7.33;;;;;14.10;100801.00;;;;10506107;28;20231;-77
2021/06/30 08:37:04;;;;;;;12.73;8.00;;;;;14.10;100798.00;;;;10486451;28;20232;-76
2021/06/30 08:42:07;;;;;;;11.27;7.60;;;;;14.00;100807.00;;;;10469649;28;20210;-77
2021/06/30 08:47:09;;;;;;;16.17;8.57;;;;;14.20;100796.00;;;;10469854;28;20174;-77
2021/06/30 08:52:12;;;;;;;13.60;9.30;;;;;14.50;100791.00;;;;10470704;28;20221;-76
2021/06/30 08:57:18;;;;;;;17.57;11.33;;;;;14.50;100800.00;;;;10510746;28;20221;-77
2021/06/30 09:02:20;;;;;;;17.70;11.27;;;;;14.60;100800.00;;;;10494079;28;20555;-77
2021/06/30 09:07:22;;;;;;;19.90;11.40;;;;;14.80;100797.00;;;;10527313;28;20228;-76
2021/06/30 09:12:44;;;;;;;15.53;10.03;;;;;15.10;100790.00;;;;10510504;28;20189;-77
2021/06/30 09:17:47;;;;;;;20.30;11.97;;;;;15.20;100800.00;;;;10510260;28;20809;-77
2021/06/30 09:22:52;;;;;;;16.43;11.53;;;;;15.30;100801.00;;;;10493460;28;20223;-77
2021/06/30 09:28:41;;;;;;;23.37;12.83;;;;;15.40;100797.00;;;;10510563;28;20186;-77
2021/06/30 09:33:52;;;;;;;20.83;14.23;;;;;15.40;100786.00;;;;10462633;28;20263;-76
2021/06/30 09:38:54;;;;;;;23.47;12.30;;;;;15.40;100797.00;;;;10509044;28;20207;-76
2021/06/30 09:44:08;;;;;;;14.53;9.77;;;;;15.90;100802.00;;;;10523764;28;20196;-76
2021/06/30 09:49:18;;;;;;;17.17;10.23;;;;;15.70;100803.00;;;;10484201;28;20581;-77
2021/06/30 09:54:20;;;;;;;14.93;10.67;;;;;15.50;100808.00;;;;10483826;28;20243;-77
2021/06/30 09:59:27;;;;;;;26.13;14.73;;;;;15.70;100804.00;;;;10483373;28;20225;-77
2021/06/30 10:04:35;;;;;;;25.13;13.90;;;;;16.10;100806.00;;;;10482476;28;20217;-77
2021/06/30 10:09:40;;;;;;;19.70;13.67;;;;;16.80;100800.00;;;;10484132;28;20190;-78
2021/06/30 10:14:43;;;;;;;17.27;12.77;;;;;16.80;100812.00;;;;10484868;28;20205;-77
2021/06/30 10:19:47;;;;;;;16.97;12.50;;;;;16.80;100815.00;;;;10484898;28;20240;-77
2021/06/30 10:24:55;;;;;;;20.17;12.40;;;;;17.50;100822.00;;;;10530909;28;20196;-77
2021/06/30 10:30:01;;;;;;;14.30;10.07;;;;;17.40;100833.00;;;;10568832;28;20188;-77
2021/06/30 10:35:15;;;;;;;11.07;8.93;;;;;16.60;100834.00;;;;10584400;28;20297;-77
2021/06/30 10:40:17;;;;;;;12.57;9.33;;;;;16.60;100830.00;;;;10586451;28;20554;-77
2021/06/30 10:45:24;;;;;;;12.93;10.47;;;;;16.30;100826.00;;;;10567268;28;20241;-77
2021/06/30 10:50:29;;;;;;;10.37;8.67;;;;;16.60;100831.00;;;;10526721;28;20192;-77
2021/06/30 10:55:41;;;;;;;13.90;9.07;;;;;16.60;100838.00;;;;10526521;28;20197;-76
2021/06/30 11:00:57;;;;;;;10.47;8.13;;;;;16.50;100832.00;;;;10543000;28;20271;-77
2021/06/30 11:06:17;;;;;;;15.77;8.67;;;;;16.50;100827.00;;;;10507543;28;20192;-77
2021/06/30 11:11:45;;;;;;;11.03;7.37;;;;;15.90;100825.00;;;;10511519;28;20189;-76
2021/06/30 11:16:49;;;;;;;9.17;7.47;;;;;16.60;100820.00;;;;10524724;28;20208;-77
2021/06/30 11:21:54;;;;;;;12.90;8.23;;;;;17.20;100822.00;;;;10493168;28;20250;-77
2021/06/30 11:26:56;;;;;;;11.83;8.90;;;;;17.60;100826.00;;;;10449799;28;20190;-77
2021/06/30 11:31:58;;;;;;;12.50;8.55;;;;;17.90;100825.00;;;;10465995;28;20217;-77
2021/06/30 11:37:02;;;;;;;12.20;7.82;;;;;17.90;100830.00;;;;10498366;28;20254;-77
2021/06/30 11:42:08;;;;;;;13.93;8.63;;;;;17.40;100832.00;;;;10498534;28;20267;-77
2021/06/30 11:47:11;;;;;;;11.80;7.20;;;;;17.00;100834.00;;;;10480549;28;20204;-77
2021/06/30 11:52:14;;;;;;;11.47;8.50;;;;;17.10;100838.00;;;;10513679;28;20745;-77
2021/06/30 11:57:16;;;;;;;11.93;8.67;;;;;17.10;100846.00;;;;10479598;28;20213;-77
2021/06/30 12:02:18;;;;;;;14.00;7.63;;;;;17.10;100847.00;;;;10479376;28;20194;-77
2021/06/30 12:07:20;;;;;;;12.15;8.45;;;;;17.50;100854.00;;;;10479098;28;20185;-77
2021/06/30 12:12:30;;;;;;;15.80;7.82;;;;;17.80;100856.00;;;;10462962;28;20288;-77
2021/06/30 12:17:32;;;;;;;11.45;8.25;;;;;17.50;100863.00;;;;10479607;28;20248;-77
2021/06/30 12:22:37;;;;;;;14.25;8.63;;;;;17.10;100869.00;;;;10479523;28;20197;-77
2021/06/30 12:27:45;;;;;;;12.82;8.73;;;;;16.60;100876.00;;;;10498722;28;20196;-77
2021/06/30 12:32:48;;;;;;;12.77;8.00;;;;;15.90;100875.00;;;;10487914;28;20240;-77
2021/06/30 12:37:56;;;;;;;10.80;6.17;;;;;15.70;100871.00;;;;10471676;28;20267;-77
2021/06/30 12:43:20;;;;;;;9.93;6.27;;;;;15.80;100867.00;;;;10486208;28;20189;-77
2021/06/30 12:48:33;;;;;;;8.67;7.07;;;;;16.10;100865.00;;;;10453418;28;20243;-76
2021/06/30 12:53:37;;;;;;;11.03;7.93;;;;;16.40;100859.00;;;;10483017;28;20247;-77
2021/06/30 12:58:45;;;;;;;14.57;8.83;;;;;16.50;100865.00;;;;10510672;28;20185;-77
2021/06/30 13:03:53;;;;;;;13.13;7.30;;;;;16.50;100868.00;;;;10510115;28;20935;-77
2021/06/30 13:09:05;;;;;;;8.87;6.30;;;;;16.40;100868.00;;;;10510173;28;20189;-77
2021/06/30 13:14:16;;;;;;;8.70;6.30;;;;;16.40;100881.00;;;;10493566;28;20212;-77
2021/06/30 13:19:41;;;;;;;7.60;5.70;;;;;16.30;100886.00;;;;10526160;28;20816;-77
2021/06/30 13:25:24;;;;;;;11.47;5.70;;;;;16.50;100893.00;;;;10508219;28;20208;-76
2021/06/30 13:35:33;;;;;;;8.33;6.50;;;;;16.30;100896.00;;;;10525434;28;20212;-77
2021/06/30 13:40:39;;;;;;;13.73;6.93;;;;;16.30;100897.00;;;;10508359;28;20200;-77
2021/06/30 13:45:51;;;;;;;8.93;7.00;;;;;16.40;100882.00;;;;10517319;28;20177;-76
2021/06/30 13:50:57;;;;;;;11.00;7.47;;;;;16.60;100891.00;;;;10508671;28;20639;-77
2021/06/30 13:56:02;;;;;;;9.13;5.87;;;;;16.90;100882.00;;;;10475547;28;20214;-77
2021/06/30 14:01:04;;;;;;;11.50;7.35;;;;;17.30;100882.00;;;;10486010;28;20185;-77
2021/06/30 14:06:07;;;;;;;9.93;6.93;;;;;17.60;100881.00;;;;10471074;28;20601;-77
2021/06/30 14:11:10;;;;;;;12.27;6.15;;;;;17.90;100878.00;;;;10487325;28;20198;-77
2021/06/30 14:16:12;;;;;;;12.93;7.10;;;;;17.70;100886.00;;;;10522281;28;20224;-77
2021/06/30 14:21:14;;;;;;;9.23;5.78;;;;;17.40;100883.00;;;;10488406;28;20190;-76
2021/06/30 14:26:16;;;;;;;8.13;4.20;;;;;17.30;100892.00;;;;10490061;28;20193;-77
2021/06/30 14:31:18;;;;;;;4.40;3.95;;;;;16.70;100891.00;;;;10471666;28;20209;-76
2021/06/30 14:36:20;;;;;;;6.43;4.35;;;;;16.20;100904.00;;;;10485772;28;20213;-77
2021/06/30 14:41:22;;;;;;;8.17;3.70;;;;;15.90;100906.00;;;;10486972;28;20205;-77
2021/06/30 14:46:24;;;;;;;5.63;3.90;;;;;15.70;100907.00;;;;10470782;28;20193;-77
2021/06/30 14:51:26;;;;;;;7.63;4.67;;;;;15.60;100907.00;;;;10502402;28;20189;-77
2021/06/30 14:56:28;;;;;;;8.23;4.83;;;;;15.90;100902.00;;;;10548211;28;20212;-77
2021/06/30 15:01:31;;;;;;;8.63;5.27;;;;;15.80;100903.00;;;;10552229;28;20253;-77
2021/06/30 15:06:33;;;;;;;5.87;5.07;;;;;15.40;100923.00;;;;10568986;28;20180;-77
2021/06/30 15:11:36;;;;;;;5.33;4.40;;;;;15.30;100920.00;;;;10548231;28;20674;-77
2021/06/30 15:16:38;;;;;;;7.50;4.57;;;;;15.10;100922.00;;;;10506676;28;20292;-77
2021/06/30 15:21:45;;;;;;;4.27;3.53;;;;;15.20;100919.00;;;;10489289;28;20292;-76
2021/06/30 15:26:48;;;;;;;5.87;3.77;;;;;15.20;100927.00;;;;10507397;28;20227;-77
2021/06/30 15:31:52;;;;;;;5.27;3.90;;;;;15.10;100923.00;;;;10507942;28;20209;-77
2021/06/30 15:36:54;;;;;;;9.43;4.47;;;;;15.20;100912.00;;;;10507605;28;20217;-76
2021/06/30 15:41:56;;;;;;;6.03;4.83;;;;;15.20;100905.00;;;;10521218;28;20196;-77
2021/06/30 15:46:58;;;;;;;9.87;5.83;;;;;15.50;100908.00;;;;10521861;28;20227;-77
2021/06/30 15:52:01;;;;;;;9.20;5.83;;;;;15.50;100904.00;;;;10503550;28;20197;-77
2021/06/30 15:57:04;;;;;;;12.20;7.37;;;;;15.40;100903.00;;;;10496638;28;20224;-77
2021/06/30 16:02:06;;;;;;;12.93;7.57;;;;;15.20;100928.00;;;;10479668;28;20189;-77
2021/06/30 16:07:08;;;;;;;13.63;8.00;;;;;15.20;100918.00;;;;10487790;28;20194;-77
2021/06/30 16:12:12;;;;;;;18.67;10.00;;;;;15.10;100926.00;;;;10505315;28;20194;-76
2021/06/30 16:17:14;;;;;;;17.33;9.40;;;;;14.90;100940.00;;;;10470708;28;20297;-76
2021/06/30 16:22:17;;;;;;;13.53;8.80;;;;;14.90;100935.00;;;;10486439;28;20247;-77
2021/06/30 16:27:19;;;;;;;15.93;9.87;;;;;15.10;100940.00;;;;10470282;28;20247;-76
2021/06/30 16:32:21;;;;;;;17.13;9.37;;;;;15.20;100936.00;;;;10485787;28;20604;-77
2021/06/30 16:37:24;;;;;;;17.03;11.10;;;;;15.10;100935.00;;;;10486511;28;20213;-76
2021/06/30 16:42:26;;;;;;;15.60;8.73;;;;;15.00;100926.00;;;;10486518;28;20216;-77
2021/06/30 16:47:28;;;;;;;16.57;9.97;;;;;14.80;100940.00;;;;10486470;28;20204;-77
2021/06/30 16:52:31;;;;;;;13.00;9.37;;;;;14.70;100942.00;;;;10490458;28;20664;-76
2021/06/30 16:57:34;;;;;;;10.73;9.37;;;;;14.80;100956.00;;;;10527157;28;20847;-76
2021/06/30 17:02:37;;;;;;;16.30;10.47;;;;;14.70;100952.00;;;;10526647;28;20192;-77
2021/06/30 17:07:40;;;;;;;20.80;11.67;;;;;14.80;100960.00;;;;10509351;28;20185;-77
2021/06/30 17:12:42;;;;;;;15.70;10.40;;;;;14.70;100959.00;;;;10510865;28;20196;-77
2021/06/30 17:17:46;;;;;;;17.50;10.93;;;;;14.60;100974.00;;;;10500824;28;20225;-76
2021/06/30 17:22:49;;;;;;;18.13;11.50;;;;;14.60;100967.00;;;;10466612;28;20230;-77
2021/06/30 17:27:51;;;;;;;17.70;12.77;;;;;14.70;100966.00;;;;10500559;28;20193;-77
2021/06/30 17:32:55;;;;;;;23.63;14.57;;;;;14.80;100959.00;;;;10468126;28;20611;-77
2021/06/30 17:37:59;;;;;;;21.63;14.30;;;;;14.80;100973.00;;;;10483590;28;20259;-77
2021/06/30 17:43:02;;;;;;;21.90;13.10;;;;;14.80;100972.00;;;;10500717;28;20189;-77
2021/06/30 17:48:04;;;;;;;22.67;12.63;;;;;14.70;100965.00;;;;10483381;28;20189;-77
2021/06/30 17:53:07;;;;;;;21.87;13.00;;;;;14.90;100957.00;;;;10506434;28;20197;-77
2021/06/30 17:58:09;;;;;;;19.50;12.63;;;;;15.00;100959.00;;;;10501173;28;20202;-77
2021/06/30 18:03:11;;;;;;;24.50;14.43;;;;;14.90;100968.00;;;;10483565;28;20231;-77
2021/06/30 18:08:13;;;;;;;19.70;13.93;;;;;14.70;100964.00;;;;10500066;28;20190;-77
2021/06/30 18:13:15;;;;;;;22.27;14.00;;;;;14.60;100972.00;;;;10483917;28;20190;-77
2021/06/30 18:18:17;;;;;;;20.07;13.80;;;;;14.40;100989.00;;;;10482561;28;20213;-76
2021/06/30 18:23:19;;;;;;;23.60;14.23;;;;;14.10;100991.00;;;;10466587;28;20229;-77
2021/06/30 18:28:21;;;;;;;22.57;14.53;;;;;14.00;100992.00;;;;10465673;28;20204;-77
2021/06/30 18:33:23;;;;;;;21.90;14.57;;;;;13.90;101014.00;;;;10482248;28;20216;-77
2021/06/30 18:38:25;;;;;;;21.70;14.73;;;;;13.80;101017.00;;;;10466142;28;20217;-78
2021/06/30 18:43:27;;;;;;;23.97;15.20;;;;;13.80;101012.00;;;;10482899;28;20197;-77
2021/06/30 18:48:29;;;;;;;23.13;15.03;;;;;13.80;101013.00;;;;10481885;28;20225;-77
2021/06/30 18:53:31;;;;;;;18.10;13.00;;;;;13.70;101017.00;;;;10465224;28;20652;-77
2021/06/30 18:58:33;;;;;;;9.57;7.97;;;;;13.60;101013.00;;;;10498362;28;20312;-77
2021/06/30 19:03:35;;;;;;;9.80;7.30;;;;;13.50;101021.00;;;;10497503;28;20221;-77
2021/06/30 19:08:37;;;;;;;9.00;6.50;;;;;13.30;101033.00;;;;10448655;28;20195;-76
2021/06/30 19:13:39;;;;;;;11.27;7.90;;;;;13.20;101036.00;;;;10467158;28;20243;-77
2021/06/30 19:18:41;;;;;;;14.57;8.60;;;;;13.20;101037.00;;;;10466651;28;20267;-77
2021/06/30 19:23:44;;;;;;;12.77;8.03;;;;;13.20;101040.00;;;;10464540;28;20742;-77
2021/06/30 19:28:47;;;;;;;15.07;10.20;;;;;13.20;101052.00;;;;10464701;28;20751;-77
2021/06/30 19:33:49;;;;;;;13.07;10.23;;;;;13.20;101048.00;;;;10498909;28;20752;-77
2021/06/30 19:38:51;;;;;;;14.57;10.63;;;;;13.20;101048.00;;;;10523349;28;20762;-77
2021/06/30 19:43:53;;;;;;;18.67;12.13;;;;;13.10;101051.00;;;;10507488;28;20238;-78
2021/06/30 19:48:55;;;;;;;18.00;10.83;;;;;13.10;101040.00;;;;10525702;28;20200;-77
2021/06/30 19:53:57;;;;;;;15.73;11.20;;;;;13.10;101052.00;;;;10491686;28;20236;-78
2021/06/30 19:58:59;;;;;;;14.63;10.27;;;;;13.10;101056.00;;;;10468271;28;20209;-77
2021/06/30 20:04:01;;;;;;;15.10;10.50;;;;;13.10;101060.00;;;;10484664;28;20186;-77
2021/06/30 20:09:04;;;;;;;15.97;12.20;;;;;13.10;101074.00;;;;10450369;28;20194;-77
2021/06/30 20:14:08;;;;;;;17.50;11.67;;;;;13.10;101079.00;;;;10468676;28;20221;-77
2021/06/30 20:19:10;;;;;;;15.20;11.80;;;;;13.10;101089.00;;;;10501698;28;20212;-77
2021/06/30 20:24:12;;;;;;;16.50;12.70;;;;;13.10;101084.00;;;;10470368;28;20549;-77
2021/06/30 20:29:14;;;;;;;17.87;13.17;;;;;13.20;101080.00;;;;10499135;28;20216;-77
2021/06/30 20:34:18;;;;;;;23.53;14.40;;;;;13.20;101083.00;;;;10485125;28;20270;-77
2021/06/30 20:39:20;;;;;;;24.00;15.40;;;;;13.20;101083.00;;;;10490893;28;20225;-77
2021/06/30 20:44:25;;;;;;;26.03;16.83;;;;;13.20;101078.00;;;;10540120;28;20648;-77
2021/06/30 20:49:27;;;;;;;42.30;20.20;;;;;13.20;101084.00;;;;10511327;28;20246;-78
2021/06/30 20:54:28;;;;;;;49.13;21.90;;;;;13.20;101083.00;;;;10534759;28;20193;-77
2021/06/30 20:59:30;;;;;;;56.37;22.37;;;;;13.20;101082.00;;;;10530442;28;20209;-77
2021/06/30 21:04:33;;;;;;;43.77;21.57;;;;;13.20;101083.00;;;;10496289;28;20189;-77
2021/06/30 21:09:35;;;;;;;44.87;19.27;;;;;13.20;101092.00;;;;10513198;28;20192;-77
2021/06/30 21:14:41;;;;;;;49.13;20.27;;;;;13.20;101087.00;;;;10529234;28;20643;-77
2021/06/30 21:19:43;;;;;;;46.50;17.87;;;;;13.20;101087.00;;;;10506135;28;20300;-77
2021/06/30 21:24:46;;;;;;;52.77;18.17;;;;;13.20;101103.00;;;;10473274;28;20229;-77
2021/06/30 21:29:48;;;;;;;49.27;17.80;;;;;13.20;101100.00;;;;10486736;28;20252;-77
2021/06/30 21:34:50;;;;;;;46.43;19.73;;;;;13.20;101103.00;;;;10470471;28;20222;-77
2021/06/30 21:39:56;;;;;;;47.17;18.03;;;;;13.20;101099.00;;;;10455463;28;20343;-77
2021/06/30 21:44:58;;;;;;;48.33;20.83;;;;;13.20;101092.00;;;;10469504;28;20537;-77
2021/06/30 21:50:00;;;;;;;44.83;20.47;;;;;13.20;101085.00;;;;10470136;28;20190;-77
2021/06/30 21:55:03;;;;;;;49.33;21.60;;;;;13.20;101088.00;;;;10498281;28;20211;-77
2021/06/30 22:00:13;;;;;;;45.43;20.60;;;;;13.20;101104.00;;;;10452966;28;20208;-77
2021/06/30 22:05:16;;;;;;;44.40;20.90;;;;;13.20;101093.00;;;;10469453;28;20620;-77
2021/06/30 22:10:19;;;;;;;47.43;18.47;;;;;13.20;101102.00;;;;10452998;28;20551;-77
2021/06/30 22:15:21;;;;;;;38.63;18.10;;;;;13.20;101095.00;;;;10451942;28;20580;-77
2021/06/30 22:20:23;;;;;;;39.70;18.27;;;;;13.20;101105.00;;;;10485509;28;20915;-77
2021/06/30 22:25:25;;;;;;;34.47;14.80;;;;;13.20;101091.00;;;;10466193;28;20280;-77
2021/06/30 22:30:27;;;;;;;35.00;16.27;;;;;13.20;101102.00;;;;10468598;28;20197;-77
2021/06/30 22:35:29;;;;;;;25.33;14.60;;;;;13.20;101100.00;;;;10485877;28;20214;-77
2021/06/30 22:40:32;;;;;;;28.00;14.57;;;;;13.10;101103.00;;;;10469795;28;20201;-77
2021/06/30 22:45:34;;;;;;;25.63;15.10;;;;;13.10;101105.00;;;;10488642;28;20185;-77
2021/06/30 22:50:39;;;;;;;31.97;17.67;;;;;13.10;101105.00;;;;10509377;28;20288;-77
2021/06/30 22:55:46;;;;;;;31.20;18.27;;;;;13.10;101115.00;;;;10524902;28;20239;-77
2021/06/30 23:00:48;;;;;;;37.87;20.00;;;;;13.10;101110.00;;;;10478816;28;20705;-76
2021/06/30 23:05:50;;;;;;;59.53;23.40;;;;;13.10;101115.00;;;;10526585;28;20189;-77
2021/06/30 23:10:52;;;;;;;62.33;23.97;;;;;13.10;101115.00;;;;10492533;28;20284;-77
2021/06/30 23:15:54;;;;;;;67.57;26.07;;;;;13.10;101110.00;;;;10507349;28;20217;-76
2021/06/30 23:20:56;;;;;;;70.77;26.40;;;;;13.10;101117.00;;;;10524883;28;20200;-76
2021/06/30 23:25:58;;;;;;;64.93;24.53;;;;;13.10;101115.00;;;;10456270;28;20240;-77
2021/06/30 23:31:00;;;;;;;64.47;24.60;;;;;13.10;101117.00;;;;10464222;28;20197;-77
2021/06/30 23:36:03;;;;;;;58.03;23.30;;;;;13.10;101114.00;;;;10463525;28;20308;-77
2021/06/30 23:41:05;;;;;;;63.13;24.10;;;;;13.10;101119.00;;;;10479801;28;20303;-77
2021/06/30 23:46:07;;;;;;;51.70;22.57;;;;;13.10;101119.00;;;;10463829;28;20201;-76
2021/06/30 23:51:09;;;;;;;48.37;21.50;;;;;13.10;101117.00;;;;10481198;28;20194;-77
2021/06/30 23:56:11;;;;;;;45.57;20.53;;;;;13.10;101109.00;;;;10500960;28;20220;-77
